Time;durP1;ratioP1;P1;durP2;ratioP2;P2;SDS_P1;SDS_P2;PMS_P1;PMS_P2;Temp;Humidity;BMP_temperature;BMP_pressure;BME280_temperature;BME280_humidity;BME280_pressure;Samples;Min_cycle;Max_cycle;Signal;HPM_P1;HPM_P2
2022/07/17 00:01:21;;;;;;;;;;;13.00;99.90;;;;;;5035120;28;19913;-81
2022/07/17 00:03:47;;;;;;;;;;;13.00;99.90;;;;;;5033971;28;20002;-80
2022/07/17 00:06:13;;;;;;;;;;;13.10;99.90;;;;;;5039963;28;20300;-80
2022/07/17 00:08:38;;;;;;;;;;;13.10;99.90;;;;;;5043863;28;20193;-82
2022/07/17 00:11:04;;;;;;;;;;;13.00;99.90;;;;;;5033214;28;19917;-79
2022/07/17 00:13:29;;;;;;;;;;;13.00;99.90;;;;;;5035549;28;20300;-80
2022/07/17 00:15:55;;;;;;;;;;;13.00;99.90;;;;;;5034194;28;19967;-80
2022/07/17 00:18:21;;;;;;;;;;;13.00;99.90;;;;;;5034476;28;19964;-81
2022/07/17 00:20:46;;;;;;;;;;;13.10;99.90;;;;;;5034032;28;19925;-80
2022/07/17 00:23:12;;;;;;;;;;;13.10;99.90;;;;;;5034769;28;19916;-81
2022/07/17 00:25:38;;;;;;;;;;;13.00;99.90;;;;;;5036110;28;19910;-80
2022/07/17 00:28:04;;;;;;;;;;;12.90;99.90;;;;;;5033054;28;19924;-80
2022/07/17 00:30:30;;;;;;;;;;;13.00;99.90;;;;;;5038658;28;19912;-80
2022/07/17 00:32:55;;;;;;;;;;;13.00;99.90;;;;;;5042263;28;19909;-80
2022/07/17 00:35:21;;;;;;;;;;;13.00;99.90;;;;;;5034155;28;19935;-83
2022/07/17 00:37:47;;;;;;;;;;;13.00;99.90;;;;;;5034415;28;20339;-80
2022/07/17 00:40:14;;;;;;;;;;;12.90;99.90;;;;;;5048500;28;19924;-81
2022/07/17 00:42:40;;;;;;;;;;;12.90;99.90;;;;;;5034621;28;19917;-81
2022/07/17 00:45:10;;;;;;;;;;;13.00;99.90;;;;;;5034198;28;19920;-81
2022/07/17 00:47:55;;;;;;;;;;;13.00;99.90;;;;;;5053304;28;19920;-80
2022/07/17 00:50:23;;;;;;;;;;;13.00;99.90;;;;;;5033304;28;19920;-80
2022/07/17 00:52:49;;;;;;;;;;;13.00;99.90;;;;;;5035471;28;19921;-80
2022/07/17 00:55:16;;;;;;;;;;;13.00;99.90;;;;;;5046093;28;20299;-80
2022/07/17 00:57:42;;;;;;;;;;;12.80;99.90;;;;;;5039328;28;19916;-80
2022/07/17 01:00:09;;;;;;;;;;;12.80;99.90;;;;;;5036094;28;19913;-80
2022/07/17 01:02:35;;;;;;;;;;;12.80;99.90;;;;;;5035794;28;20232;-79
2022/07/17 01:05:00;;;;;;;;;;;12.80;99.90;;;;;;5055249;28;19908;-79
2022/07/17 01:07:26;;;;;;;;;;;12.80;99.90;;;;;;5041419;28;19920;-82
2022/07/17 01:09:51;;;;;;;;;;;12.70;99.90;;;;;;5038223;28;20319;-79
2022/07/17 01:12:17;;;;;;;;;;;12.60;99.90;;;;;;5043729;28;20266;-78
2022/07/17 01:14:43;;;;;;;;;;;12.60;99.90;;;;;;5037280;28;19955;-79
2022/07/17 01:17:09;;;;;;;;;;;12.60;99.90;;;;;;5034069;28;19914;-80
2022/07/17 01:19:35;;;;;;;;;;;12.60;99.90;;;;;;5045153;28;19936;-79
2022/07/17 01:22:01;;;;;;;;;;;12.50;99.90;;;;;;5041067;28;20228;-80
2022/07/17 01:24:26;;;;;;;;;;;12.50;99.90;;;;;;5033933;28;19924;-78
2022/07/17 01:26:52;;;;;;;;;;;12.40;99.90;;;;;;5047064;28;20424;-78
2022/07/17 01:29:17;;;;;;;;;;;12.30;99.90;;;;;;5035334;28;19992;-78
2022/07/17 01:31:43;;;;;;;;;;;12.20;99.90;;;;;;5033323;28;20236;-78
2022/07/17 01:34:09;;;;;;;;;;;12.20;99.90;;;;;;5034920;28;19917;-78
2022/07/17 01:36:35;;;;;;;;;;;12.30;99.90;;;;;;5041987;28;19948;-78
2022/07/17 01:39:01;;;;;;;;;;;12.30;99.90;;;;;;5032760;28;19920;-79
2022/07/17 01:41:27;;;;;;;;;;;12.30;99.90;;;;;;5032031;28;19933;-78
2022/07/17 01:43:52;;;;;;;;;;;12.30;99.90;;;;;;5040161;28;19967;-80
2022/07/17 01:46:18;;;;;;;;;;;12.30;99.90;;;;;;5034875;28;19916;-78
2022/07/17 01:48:43;;;;;;;;;;;12.30;99.90;;;;;;5033601;28;19964;-79
2022/07/17 01:51:09;;;;;;;;;;;12.30;99.90;;;;;;5034949;28;19921;-79
2022/07/17 01:53:34;;;;;;;;;;;12.30;99.90;;;;;;5032674;28;20368;-80
2022/07/17 01:56:00;;;;;;;;;;;12.30;99.90;;;;;;5047647;28;20300;-80
2022/07/17 01:58:25;;;;;;;;;;;12.50;99.90;;;;;;5043123;28;19956;-80
2022/07/17 02:00:51;;;;;;;;;;;12.40;99.90;;;;;;5048949;28;19913;-81
2022/07/17 02:03:17;;;;;;;;;;;12.40;99.90;;;;;;5051628;28;19972;-80
2022/07/17 02:05:43;;;;;;;;;;;12.40;99.90;;;;;;5037646;28;19953;-80
2022/07/17 02:08:08;;;;;;;;;;;12.30;99.90;;;;;;5041610;28;19917;-79
2022/07/17 02:10:34;;;;;;;;;;;12.20;99.90;;;;;;5035776;28;19917;-82
2022/07/17 02:13:00;;;;;;;;;;;12.20;99.90;;;;;;5037615;28;19917;-79
2022/07/17 02:15:25;;;;;;;;;;;12.10;99.90;;;;;;5051733;28;20005;-80
2022/07/17 02:17:51;;;;;;;;;;;12.10;99.90;;;;;;5038594;28;19916;-81
2022/07/17 02:20:16;;;;;;;;;;;12.10;99.90;;;;;;5036007;28;19921;-82
2022/07/17 02:22:42;;;;;;;;;;;12.20;99.90;;;;;;5045390;28;19913;-82
2022/07/17 02:25:09;;;;;;;;;;;12.20;99.90;;;;;;5058346;28;20211;-81
2022/07/17 02:27:35;;;;;;;;;;;12.20;99.90;;;;;;5057721;28;19920;-81
2022/07/17 02:30:05;;;;;;;;;;;12.30;99.90;;;;;;5051954;28;19921;-81
2022/07/17 02:32:31;;;;;;;;;;;12.10;99.90;;;;;;5036934;28;19913;-81
2022/07/17 02:34:56;;;;;;;;;;;12.10;99.90;;;;;;5038209;28;20330;-81
2022/07/17 02:37:22;;;;;;;;;;;12.00;99.90;;;;;;5051490;28;19919;-82
2022/07/17 02:39:53;;;;;;;;;;;12.00;99.90;;;;;;5045937;28;19913;-81
2022/07/17 02:42:26;;;;;;;;;;;12.00;99.90;;;;;;5043367;28;20255;-81
2022/07/17 02:44:52;;;;;;;;;;;12.00;99.90;;;;;;5049782;28;19909;-81
2022/07/17 02:47:28;;;;;;;;;;;11.90;99.90;;;;;;5036489;28;19920;-82
2022/07/17 02:49:53;;;;;;;;;;;11.90;99.90;;;;;;5035063;28;20196;-82
2022/07/17 02:52:19;;;;;;;;;;;11.80;99.90;;;;;;5037585;28;20012;-80
2022/07/17 02:54:45;;;;;;;;;;;11.80;99.90;;;;;;5036128;28;20251;-79
2022/07/17 02:57:11;;;;;;;;;;;11.80;99.90;;;;;;5037062;28;19913;-81
2022/07/17 02:59:36;;;;;;;;;;;11.80;99.90;;;;;;5038279;28;19926;-82
2022/07/17 03:02:02;;;;;;;;;;;11.90;99.90;;;;;;5047916;28;19916;-81
2022/07/17 03:04:28;;;;;;;;;;;11.90;99.90;;;;;;5047993;28;20308;-80
2022/07/17 03:06:53;;;;;;;;;;;11.90;99.90;;;;;;5043175;28;19967;-81
2022/07/17 03:09:19;;;;;;;;;;;12.00;99.90;;;;;;5032103;28;20327;-81
2022/07/17 03:11:45;;;;;;;;;;;12.00;99.90;;;;;;5043615;28;19913;-81
2022/07/17 03:14:10;;;;;;;;;;;11.90;99.90;;;;;;5042811;28;21465;-80
2022/07/17 03:16:36;;;;;;;;;;;11.90;99.90;;;;;;5040232;28;19917;-80
2022/07/17 03:19:01;;;;;;;;;;;11.90;99.90;;;;;;5047530;28;20300;-82
2022/07/17 03:21:27;;;;;;;;;;;11.90;99.90;;;;;;5047003;28;19925;-81
2022/07/17 03:23:52;;;;;;;;;;;11.90;99.90;;;;;;5047269;28;19940;-81
2022/07/17 03:26:18;;;;;;;;;;;12.00;99.90;;;;;;5048510;28;19959;-82
2022/07/17 03:28:43;;;;;;;;;;;12.00;99.90;;;;;;5036978;28;19917;-82
2022/07/17 03:31:09;;;;;;;;;;;11.90;99.90;;;;;;5048718;28;20185;-82
2022/07/17 03:33:35;;;;;;;;;;;11.90;99.90;;;;;;5048730;28;19940;-81
2022/07/17 03:36:00;;;;;;;;;;;11.90;99.90;;;;;;5045069;28;19912;-82
2022/07/17 03:38:26;;;;;;;;;;;11.90;99.90;;;;;;5050793;28;19920;-81
2022/07/17 03:40:51;;;;;;;;;;;12.00;99.90;;;;;;5040280;28;20059;-81
2022/07/17 03:43:17;;;;;;;;;;;11.90;99.90;;;;;;5048246;28;20083;-80
2022/07/17 03:45:42;;;;;;;;;;;11.90;99.90;;;;;;5044749;28;20012;-80
2022/07/17 03:48:08;;;;;;;;;;;11.90;99.90;;;;;;5035272;28;20324;-80
2022/07/17 03:50:34;;;;;;;;;;;12.00;99.90;;;;;;5034204;28;19921;-80
2022/07/17 03:52:59;;;;;;;;;;;12.00;99.90;;;;;;5033942;28;20241;-79
2022/07/17 03:55:26;;;;;;;;;;;12.00;99.90;;;;;;5033297;28;20228;-80
2022/07/17 03:57:52;;;;;;;;;;;12.00;99.90;;;;;;5036097;28;19913;-81
2022/07/17 04:00:18;;;;;;;;;;;12.00;99.90;;;;;;5033384;28;19920;-82
2022/07/17 04:02:43;;;;;;;;;;;12.00;99.90;;;;;;5034494;28;19936;-80
2022/07/17 04:05:10;;;;;;;;;;;12.00;99.90;;;;;;5036136;28;20267;-80
2022/07/17 04:07:37;;;;;;;;;;;12.00;99.90;;;;;;5036164;28;19940;-80
2022/07/17 04:10:03;;;;;;;;;;;12.00;99.90;;;;;;5035305;28;19917;-81
2022/07/17 04:12:29;;;;;;;;;;;12.00;99.90;;;;;;5034604;28;19921;-80
2022/07/17 04:14:54;;;;;;;;;;;12.00;99.90;;;;;;5033548;28;19936;-79
2022/07/17 04:17:20;;;;;;;;;;;12.00;99.90;;;;;;5033157;28;19959;-80
2022/07/17 04:19:46;;;;;;;;;;;11.90;99.90;;;;;;5032820;28;19944;-81
2022/07/17 04:22:11;;;;;;;;;;;11.90;99.90;;;;;;5033311;28;19922;-80
2022/07/17 04:24:37;;;;;;;;;;;11.90;99.90;;;;;;5032521;28;20337;-81
2022/07/17 04:27:02;;;;;;;;;;;11.90;99.90;;;;;;5033858;28;19920;-81
2022/07/17 04:29:28;;;;;;;;;;;11.80;99.90;;;;;;5034638;28;19920;-81
2022/07/17 04:31:53;;;;;;;;;;;11.80;99.90;;;;;;5035564;28;19917;-81
2022/07/17 04:34:19;;;;;;;;;;;11.80;99.90;;;;;;5032705;28;19917;-80
2022/07/17 04:36:44;;;;;;;;;;;11.90;99.90;;;;;;5032180;28;20043;-82
2022/07/17 04:39:10;;;;;;;;;;;11.90;99.90;;;;;;5030218;28;19913;-79
2022/07/17 04:41:35;;;;;;;;;;;11.90;99.90;;;;;;5034619;28;19963;-81
2022/07/17 04:44:01;;;;;;;;;;;12.00;99.90;;;;;;5033158;28;19913;-79
2022/07/17 04:46:27;;;;;;;;;;;12.00;99.90;;;;;;5035675;28;19913;-79
2022/07/17 04:48:52;;;;;;;;;;;12.00;99.90;;;;;;5018136;28;19913;-82
2022/07/17 04:51:18;;;;;;;;;;;12.00;99.90;;;;;;5016603;28;19921;-82
2022/07/17 04:53:43;;;;;;;;;;;12.10;99.90;;;;;;5034832;28;19924;-80
2022/07/17 04:56:09;;;;;;;;;;;12.10;99.90;;;;;;5033940;28;19913;-82
2022/07/17 04:58:35;;;;;;;;;;;12.20;99.90;;;;;;5035325;28;19920;-82
2022/07/17 05:01:00;;;;;;;;;;;12.30;99.90;;;;;;5035425;28;19913;-79
2022/07/17 05:03:26;;;;;;;;;;;12.40;99.90;;;;;;5033547;28;20240;-81
2022/07/17 05:05:51;;;;;;;;;;;12.40;99.90;;;;;;5034179;28;19909;-79
2022/07/17 05:08:18;;;;;;;;;;;12.40;99.90;;;;;;5034658;28;20362;-78
2022/07/17 05:10:44;;;;;;;;;;;12.40;99.90;;;;;;5033411;28;19991;-79
2022/07/17 05:13:10;;;;;;;;;;;12.50;99.90;;;;;;5033270;28;19917;-78
2022/07/17 05:15:35;;;;;;;;;;;12.60;99.90;;;;;;5033915;28;19966;-79
2022/07/17 05:18:01;;;;;;;;;;;12.70;99.90;;;;;;5032977;28;20236;-79
2022/07/17 05:20:26;;;;;;;;;;;12.80;99.90;;;;;;5035563;28;19921;-81
2022/07/17 05:22:52;;;;;;;;;;;12.90;99.90;;;;;;5030208;28;19917;-82
2022/07/17 05:25:17;;;;;;;;;;;12.90;99.90;;;;;;5032428;28;19913;-82
2022/07/17 05:27:43;;;;;;;;;;;13.00;99.90;;;;;;5033783;28;20205;-83
2022/07/17 05:30:09;;;;;;;;;;;13.00;99.90;;;;;;5034241;28;19974;-83
2022/07/17 05:32:34;;;;;;;;;;;13.10;99.90;;;;;;5032053;28;19956;-82
2022/07/17 05:35:00;;;;;;;;;;;13.20;99.90;;;;;;5031820;28;19944;-82
2022/07/17 05:37:25;;;;;;;;;;;13.30;99.90;;;;;;5032727;28;19920;-83
2022/07/17 05:39:51;;;;;;;;;;;13.30;99.90;;;;;;5032916;28;19913;-83
2022/07/17 05:42:16;;;;;;;;;;;13.40;99.90;;;;;;5033995;28;19971;-83
2022/07/17 05:44:42;;;;;;;;;;;13.30;99.90;;;;;;5033446;28;19940;-82
2022/07/17 05:47:07;;;;;;;;;;;13.30;99.90;;;;;;5035164;28;19913;-79
2022/07/17 05:49:33;;;;;;;;;;;13.40;99.90;;;;;;5031681;28;19923;-80
2022/07/17 05:51:59;;;;;;;;;;;13.40;99.90;;;;;;5032968;28;19928;-80
2022/07/17 05:54:24;;;;;;;;;;;13.40;99.90;;;;;;5033911;28;19971;-83
2022/07/17 05:56:50;;;;;;;;;;;13.50;99.90;;;;;;5032050;28;20297;-83
2022/07/17 05:59:15;;;;;;;;;;;13.50;99.90;;;;;;5032258;28;19919;-83
2022/07/17 06:01:41;;;;;;;;;;;13.60;99.90;;;;;;5036425;28;20283;-82
2022/07/17 06:04:07;;;;;;;;;;;13.60;99.90;;;;;;5036670;28;19917;-82
2022/07/17 06:06:32;;;;;;;;;;;13.70;99.90;;;;;;5033470;28;19967;-82
2022/07/17 06:08:58;;;;;;;;;;;13.70;99.90;;;;;;5036031;28;19913;-83
2022/07/17 06:11:23;;;;;;;;;;;13.80;99.90;;;;;;5034004;28;19917;-83
2022/07/17 06:13:49;;;;;;;;;;;13.80;99.90;;;;;;5032140;28;20216;-83
2022/07/17 06:16:15;;;;;;;;;;;13.90;99.90;;;;;;5031920;28;20039;-82
2022/07/17 06:18:40;;;;;;;;;;;14.00;99.90;;;;;;5031770;28;19913;-82
2022/07/17 06:21:06;;;;;;;;;;;14.10;99.90;;;;;;5032879;28;19984;-82
2022/07/17 06:23:31;;;;;;;;;;;14.10;99.90;;;;;;5033924;28;19913;-82
2022/07/17 06:25:57;;;;;;;;;;;14.20;99.90;;;;;;5047217;28;19917;-83
2022/07/17 06:28:22;;;;;;;;;;;14.30;99.90;;;;;;5038913;28;19917;-82
2022/07/17 06:30:48;;;;;;;;;;;14.40;99.90;;;;;;5036486;28;20016;-82
2022/07/17 06:33:13;;;;;;;;;;;14.40;99.90;;;;;;5041544;28;20000;-82
2022/07/17 06:35:39;;;;;;;;;;;14.50;99.90;;;;;;5039804;28;19913;-81
2022/07/17 06:38:04;;;;;;;;;;;14.60;99.90;;;;;;5045579;28;19913;-81
2022/07/17 06:40:30;;;;;;;;;;;14.60;99.90;;;;;;5030159;28;19963;-82
2022/07/17 06:42:55;;;;;;;;;;;14.70;99.90;;;;;;5032606;28;20292;-81
2022/07/17 06:45:21;;;;;;;;;;;14.70;99.90;;;;;;5032734;28;20308;-81
2022/07/17 06:47:46;;;;;;;;;;;14.80;99.90;;;;;;5034556;28;19944;-82
2022/07/17 06:50:12;;;;;;;;;;;14.80;99.90;;;;;;5036005;28;19913;-82
2022/07/17 06:52:38;;;;;;;;;;;14.90;99.90;;;;;;5038889;28;19913;-79
2022/07/17 06:55:03;;;;;;;;;;;15.00;99.90;;;;;;5034676;28;19923;-82
2022/07/17 06:57:29;;;;;;;;;;;15.10;99.90;;;;;;5037938;28;19917;-81
2022/07/17 06:59:54;;;;;;;;;;;15.30;99.90;;;;;;5035555;28;20259;-82
2022/07/17 07:02:20;;;;;;;;;;;15.40;99.90;;;;;;5036110;28;20293;-81
2022/07/17 07:04:45;;;;;;;;;;;15.40;99.90;;;;;;5035618;28;19944;-81
2022/07/17 07:07:11;;;;;;;;;;;15.50;99.90;;;;;;5036094;28;20020;-83
2022/07/17 07:09:37;;;;;;;;;;;15.50;99.90;;;;;;5037144;28;20308;-83
2022/07/17 07:12:02;;;;;;;;;;;15.60;99.90;;;;;;5036234;28;19925;-83
2022/07/17 07:14:28;;;;;;;;;;;15.60;99.90;;;;;;5036713;28;20019;-81
2022/07/17 07:16:53;;;;;;;;;;;15.80;99.90;;;;;;5037457;28;19917;-81
2022/07/17 07:19:19;;;;;;;;;;;15.80;99.90;;;;;;5035827;28;20010;-83
2022/07/17 07:21:45;;;;;;;;;;;15.90;99.90;;;;;;5035259;28;19921;-81
2022/07/17 07:24:10;;;;;;;;;;;16.00;99.90;;;;;;5037062;28;19948;-77
2022/07/17 07:26:36;;;;;;;;;;;16.10;99.90;;;;;;5036829;28;19917;-82
2022/07/17 07:29:01;;;;;;;;;;;16.10;99.90;;;;;;5036562;28;19917;-81
2022/07/17 07:31:27;;;;;;;;;;;16.20;99.90;;;;;;5034409;28;19968;-81
2022/07/17 07:33:52;;;;;;;;;;;16.30;99.90;;;;;;5034461;28;20289;-81
2022/07/17 07:36:18;;;;;;;;;;;16.40;99.90;;;;;;5037047;28;20269;-83
2022/07/17 07:38:45;;;;;;;;;;;16.50;99.90;;;;;;5035597;28;19982;-84
2022/07/17 07:41:11;;;;;;;;;;;16.60;99.90;;;;;;5047232;28;19928;-83
2022/07/17 07:43:36;;;;;;;;;;;16.70;99.90;;;;;;5046281;28;19917;-81
2022/07/17 07:46:02;;;;;;;;;;;16.80;99.90;;;;;;5036613;28;19909;-83
2022/07/17 07:48:28;;;;;;;;;;;16.90;99.90;;;;;;5034298;28;20015;-81
2022/07/17 07:50:53;;;;;;;;;;;17.20;99.90;;;;;;5035217;28;19909;-83
2022/07/17 07:53:19;;;;;;;;;;;17.40;99.90;;;;;;5036590;28;19909;-82
2022/07/17 07:55:44;;;;;;;;;;;17.50;99.90;;;;;;5035341;28;19948;-80
2022/07/17 07:58:12;;;;;;;;;;;17.70;99.90;;;;;;5035768;28;19913;-81
2022/07/17 08:00:39;;;;;;;;;;;17.80;99.90;;;;;;5034914;28;19913;-83
2022/07/17 08:03:04;;;;;;;;;;;18.10;99.90;;;;;;5035009;28;19987;-82
2022/07/17 08:05:30;;;;;;;;;;;18.50;99.90;;;;;;5034460;28;20003;-81
2022/07/17 08:07:56;;;;;;;;;;;18.50;99.90;;;;;;5035464;28;19936;-80
2022/07/17 08:10:21;;;;;;;;;;;18.90;99.90;;;;;;5036435;28;19948;-80
2022/07/17 08:12:47;;;;;;;;;;;19.10;99.90;;;;;;5034076;28;19971;-77
2022/07/17 08:15:14;;;;;;;;;;;19.40;99.90;;;;;;5034025;28;20359;-81
2022/07/17 08:17:39;;;;;;;;;;;19.50;99.90;;;;;;5034037;28;20303;-80
2022/07/17 08:20:07;;;;;;;;;;;19.50;99.90;;;;;;5033341;28;19959;-79
2022/07/17 08:22:32;;;;;;;;;;;19.60;99.90;;;;;;5034269;28;20006;-80
2022/07/17 08:24:58;;;;;;;;;;;19.70;99.90;;;;;;5034118;28;20316;-80
2022/07/17 08:27:24;;;;;;;;;;;20.10;99.90;;;;;;5031509;28;20190;-79
2022/07/17 08:29:49;;;;;;;;;;;20.50;99.90;;;;;;5034301;28;19940;-79
2022/07/17 08:32:15;;;;;;;;;;;20.90;99.90;;;;;;5032869;28;20513;-77
2022/07/17 08:34:41;;;;;;;;;;;21.00;99.90;;;;;;5040125;28;19967;-80
2022/07/17 08:37:06;;;;;;;;;;;20.70;99.90;;;;;;5033789;28;20275;-78
2022/07/17 08:39:32;;;;;;;;;;;21.10;99.90;;;;;;5034928;28;20332;-79
2022/07/17 08:41:57;;;;;;;;;;;21.40;99.90;;;;;;5034511;28;20255;-79
2022/07/17 08:44:23;;;;;;;;;;;21.80;99.90;;;;;;5034003;28;20598;-78
2022/07/17 08:46:50;;;;;;;;;;;22.00;99.90;;;;;;5034693;28;19951;-81
2022/07/17 08:49:20;;;;;;;;;;;22.30;99.90;;;;;;5034704;28;19971;-80
2022/07/17 08:51:45;;;;;;;;;;;22.60;99.90;;;;;;5034569;28;19913;-81
2022/07/17 08:54:11;;;;;;;;;;;22.90;99.70;;;;;;5033788;28;19987;-77
2022/07/17 08:56:37;;;;;;;;;;;23.20;98.80;;;;;;5031945;28;19913;-80
2022/07/17 08:59:02;;;;;;;;;;;23.00;97.90;;;;;;5034132;28;19992;-79
2022/07/17 09:01:28;;;;;;;;;;;22.80;98.40;;;;;;5033586;28;19917;-77
2022/07/17 09:04:05;;;;;;;;;;;22.80;99.70;;;;;;5033965;28;19991;-77
2022/07/17 09:06:32;;;;;;;;;;;22.80;99.10;;;;;;5035593;28;19960;-77
2022/07/17 09:09:09;;;;;;;;;;;23.00;99.10;;;;;;5033906;28;19925;-78
2022/07/17 09:12:04;;;;;;;;;;;23.20;97.70;;;;;;5048074;28;19921;-79
2022/07/17 09:14:38;;;;;;;;;;;22.90;97.20;;;;;;4967478;28;20009;-78
2022/07/17 09:17:04;;;;;;;;;;;22.60;97.30;;;;;;4954904;28;19942;-78
2022/07/17 09:19:30;;;;;;;;;;;22.80;95.50;;;;;;4971760;28;19925;-79
2022/07/17 09:22:10;;;;;;;;;;;22.50;96.00;;;;;;4970606;28;19922;-77
2022/07/17 09:24:55;;;;;;;;;;;22.70;96.40;;;;;;4971113;28;19973;-80
2022/07/17 09:27:23;;;;;;;;;;;23.00;94.60;;;;;;4973558;28;19962;-79
2022/07/17 09:29:53;;;;;;;;;;;23.10;94.30;;;;;;4967378;28;19914;-79
2022/07/17 09:32:19;;;;;;;;;;;23.00;94.60;;;;;;4972131;28;19915;-78
2022/07/17 09:34:45;;;;;;;;;;;23.10;93.90;;;;;;4964285;28;19918;-76
2022/07/17 09:37:11;;;;;;;;;;;23.10;94.90;;;;;;4971743;28;19965;-77
2022/07/17 09:39:37;;;;;;;;;;;23.50;96.00;;;;;;4955851;28;19972;-78
2022/07/17 09:42:03;;;;;;;;;;;23.50;94.90;;;;;;4974734;28;19918;-78
2022/07/17 09:44:28;;;;;;;;;;;23.60;96.10;;;;;;4978689;28;20233;-77
2022/07/17 09:46:55;;;;;;;;;;;24.10;95.30;;;;;;4972565;28;19940;-78
2022/07/17 09:49:22;;;;;;;;;;;24.10;95.30;;;;;;4963897;28;20042;-79
2022/07/17 09:51:48;;;;;;;;;;;23.70;94.60;;;;;;5007833;28;19928;-78
2022/07/17 09:54:14;;;;;;;;;;;24.10;95.70;;;;;;5013769;28;19952;-77
2022/07/17 09:56:40;;;;;;;;;;;24.50;95.50;;;;;;5015011;28;20266;-79
2022/07/17 09:59:07;;;;;;;;;;;25.00;95.10;;;;;;5014013;28;20008;-79
2022/07/17 10:01:32;;;;;;;;;;;25.00;93.90;;;;;;5011860;28;19941;-80
2022/07/17 10:03:58;;;;;;;;;;;25.20;95.90;;;;;;5015101;28;19910;-77
2022/07/17 10:06:24;;;;;;;;;;;25.40;94.60;;;;;;5013764;28;20305;-77
2022/07/17 10:08:51;;;;;;;;;;;25.30;94.00;;;;;;5028868;28;19913;-78
2022/07/17 10:11:19;;;;;;;;;;;25.00;93.70;;;;;;5014183;28;19914;-79
2022/07/17 10:13:46;;;;;;;;;;;24.70;94.00;;;;;;5013242;28;20012;-77
2022/07/17 10:16:13;;;;;;;;;;;24.60;94.50;;;;;;5032377;28;19917;-79
2022/07/17 10:18:42;;;;;;;;;;;24.40;93.70;;;;;;5031420;28;20008;-77
2022/07/17 10:21:13;;;;;;;;;;;24.20;93.50;;;;;;5041398;28;19917;-79
2022/07/17 10:23:39;;;;;;;;;;;24.30;94.10;;;;;;5045827;28;20312;-76
2022/07/17 10:26:04;;;;;;;;;;;24.30;95.00;;;;;;5038459;28;19967;-77
2022/07/17 10:28:39;;;;;;;;;;;24.70;94.70;;;;;;5036655;28;19909;-78
2022/07/17 10:31:04;;;;;;;;;;;24.70;93.60;;;;;;5040386;28;19921;-78
2022/07/17 10:33:30;;;;;;;;;;;24.50;93.20;;;;;;5036705;28;20231;-78
2022/07/17 10:35:59;;;;;;;;;;;24.40;93.70;;;;;;5033569;28;20000;-76
2022/07/17 10:38:26;;;;;;;;;;;24.10;94.00;;;;;;5036848;28;19939;-76
2022/07/17 10:40:59;;;;;;;;;;;24.60;93.00;;;;;;5034097;28;20380;-78
2022/07/17 10:43:24;;;;;;;;;;;24.80;93.70;;;;;;5034209;28;19920;-77
2022/07/17 10:45:50;;;;;;;;;;;25.10;94.30;;;;;;5036258;28;20227;-77
2022/07/17 10:48:19;;;;;;;;;;;25.20;93.30;;;;;;5035627;28;19936;-77
2022/07/17 10:50:46;;;;;;;;;;;24.80;92.20;;;;;;5033842;28;19917;-77
2022/07/17 10:53:20;;;;;;;;;;;24.80;94.00;;;;;;5035841;28;19924;-78
2022/07/17 10:55:47;;;;;;;;;;;25.00;92.00;;;;;;5052268;28;19913;-77
2022/07/17 10:58:15;;;;;;;;;;;25.00;94.50;;;;;;5035754;28;19917;-77
2022/07/17 11:00:41;;;;;;;;;;;24.90;93.00;;;;;;5035764;28;19921;-77
2022/07/17 11:03:11;;;;;;;;;;;24.50;92.40;;;;;;5036268;28;19928;-77
2022/07/17 11:05:36;;;;;;;;;;;24.60;94.40;;;;;;5043186;28;20210;-77
2022/07/17 11:08:06;;;;;;;;;;;24.50;93.70;;;;;;5037466;28;19943;-78
2022/07/17 11:10:31;;;;;;;;;;;24.70;96.40;;;;;;5036119;28;19953;-78
2022/07/17 11:13:07;;;;;;;;;;;25.00;93.90;;;;;;5033768;28;19960;-76
2022/07/17 11:15:44;;;;;;;;;;;25.00;94.00;;;;;;5033708;28;19927;-77
2022/07/17 11:18:11;;;;;;;;;;;25.30;92.50;;;;;;5041192;28;19917;-77
2022/07/17 11:20:46;;;;;;;;;;;25.50;94.60;;;;;;5039555;28;19920;-78
2022/07/17 11:23:11;;;;;;;;;;;25.30;92.20;;;;;;5037254;28;20216;-78
2022/07/17 11:25:37;;;;;;;;;;;25.50;92.90;;;;;;5038923;28;19923;-78
2022/07/17 11:28:02;;;;;;;;;;;25.00;92.10;;;;;;5038934;28;20376;-76
2022/07/17 11:30:29;;;;;;;;;;;24.70;91.70;;;;;;5030710;28;19950;-76
2022/07/17 11:32:57;;;;;;;;;;;25.10;93.30;;;;;;5029658;28;19968;-76
2022/07/17 11:35:23;;;;;;;;;;;24.80;91.90;;;;;;5031622;28;19921;-77
2022/07/17 11:37:49;;;;;;;;;;;25.20;94.30;;;;;;5033722;28;19923;-77
2022/07/17 11:40:15;;;;;;;;;;;25.90;93.10;;;;;;5030468;28;19917;-78
2022/07/17 11:42:41;;;;;;;;;;;26.40;92.30;;;;;;5030399;28;19921;-77
2022/07/17 11:45:07;;;;;;;;;;;26.70;92.30;;;;;;5028681;28;19921;-78
2022/07/17 11:47:33;;;;;;;;;;;26.80;91.30;;;;;;5025340;28;19917;-78
2022/07/17 11:50:06;;;;;;;;;;;26.90;91.00;;;;;;5028778;28;19917;-77
2022/07/17 11:52:39;;;;;;;;;;;26.80;91.90;;;;;;5028043;28;20431;-79
2022/07/17 11:55:05;;;;;;;;;;;27.00;91.40;;;;;;5030248;28;19928;-78
2022/07/17 11:57:40;;;;;;;;;;;27.00;90.80;;;;;;5031936;28;19917;-77
2022/07/17 12:00:07;;;;;;;;;;;26.70;91.70;;;;;;5032583;28;19921;-77
2022/07/17 12:02:34;;;;;;;;;;;26.40;92.70;;;;;;5031146;28;19956;-77
2022/07/17 12:04:59;;;;;;;;;;;26.30;91.70;;;;;;5029894;28;21308;-77
2022/07/17 12:07:26;;;;;;;;;;;26.60;91.30;;;;;;5031417;28;19917;-77
2022/07/17 12:09:52;;;;;;;;;;;26.60;90.00;;;;;;5032706;28;20366;-77
2022/07/17 12:12:19;;;;;;;;;;;26.40;88.40;;;;;;5030945;28;19937;-76
2022/07/17 12:14:51;;;;;;;;;;;26.20;86.20;;;;;;5031590;28;19999;-78
2022/07/17 12:17:17;;;;;;;;;;;26.50;88.90;;;;;;5032032;28;19960;-77
2022/07/17 12:19:43;;;;;;;;;;;26.80;91.70;;;;;;5032102;28;19936;-76
2022/07/17 12:22:08;;;;;;;;;;;26.90;90.10;;;;;;5030687;28;19932;-78
2022/07/17 12:24:38;;;;;;;;;;;26.70;87.00;;;;;;5031782;28;19917;-76
2022/07/17 12:27:04;;;;;;;;;;;27.10;89.60;;;;;;5032576;28;19924;-78
2022/07/17 12:29:30;;;;;;;;;;;27.30;91.60;;;;;;5032199;28;19932;-78
2022/07/17 12:32:05;;;;;;;;;;;27.40;87.70;;;;;;5030572;28;19917;-79
2022/07/17 12:34:34;;;;;;;;;;;27.20;87.20;;;;;;5051032;28;20327;-76
2022/07/17 12:36:59;;;;;;;;;;;26.90;83.80;;;;;;5030959;28;19917;-76
2022/07/17 12:39:25;;;;;;;;;;;26.30;84.50;;;;;;5031825;28;19917;-75
2022/07/17 12:41:51;;;;;;;;;;;26.10;85.70;;;;;;5031153;28;19921;-78
2022/07/17 12:44:16;;;;;;;;;;;26.20;86.10;;;;;;5031195;28;19933;-84
2022/07/17 12:46:42;;;;;;;;;;;25.90;85.30;;;;;;5029677;28;19917;-75
2022/07/17 12:49:07;;;;;;;;;;;25.60;85.40;;;;;;5029967;28;19960;-78
2022/07/17 12:51:33;;;;;;;;;;;25.40;83.70;;;;;;5030053;28;19972;-76
2022/07/17 12:53:58;;;;;;;;;;;25.30;81.50;;;;;;5030370;28;19953;-75
2022/07/17 12:56:24;;;;;;;;;;;25.20;83.20;;;;;;5031018;28;19917;-77
2022/07/17 12:58:50;;;;;;;;;;;25.60;82.90;;;;;;5028444;28;19970;-75
2022/07/17 13:01:16;;;;;;;;;;;25.70;82.70;;;;;;5032385;28;19921;-79
2022/07/17 13:03:42;;;;;;;;;;;26.20;83.80;;;;;;5030504;28;20008;-78
2022/07/17 13:06:08;;;;;;;;;;;26.10;85.60;;;;;;5033190;28;20012;-79
2022/07/17 13:08:34;;;;;;;;;;;26.50;85.10;;;;;;5030676;28;19913;-81
2022/07/17 13:11:01;;;;;;;;;;;26.80;85.90;;;;;;5033041;28;19923;-76
2022/07/17 13:13:28;;;;;;;;;;;27.20;84.70;;;;;;5034822;28;19963;-78
2022/07/17 13:15:54;;;;;;;;;;;27.40;86.80;;;;;;5034362;28;19917;-76
2022/07/17 13:18:19;;;;;;;;;;;27.40;85.90;;;;;;5032683;28;19916;-77
2022/07/17 13:20:46;;;;;;;;;;;27.50;85.30;;;;;;5031783;28;19913;-77
2022/07/17 13:23:12;;;;;;;;;;;27.60;85.40;;;;;;5034098;28;19987;-76
2022/07/17 13:25:38;;;;;;;;;;;27.40;88.90;;;;;;5032379;28;19921;-76
2022/07/17 13:28:03;;;;;;;;;;;27.60;87.00;;;;;;5032667;28;20312;-76
2022/07/17 13:30:29;;;;;;;;;;;27.70;89.10;;;;;;5035101;28;19952;-77
2022/07/17 13:32:55;;;;;;;;;;;27.60;85.30;;;;;;5034927;28;20204;-76
2022/07/17 13:35:20;;;;;;;;;;;27.50;85.20;;;;;;5034725;28;20513;-77
2022/07/17 13:37:46;;;;;;;;;;;27.50;85.50;;;;;;5032282;28;19999;-76
2022/07/17 13:40:12;;;;;;;;;;;27.50;87.80;;;;;;5034717;28;19996;-76
2022/07/17 13:42:38;;;;;;;;;;;27.30;87.60;;;;;;5031501;28;20377;-76
2022/07/17 13:45:04;;;;;;;;;;;27.20;86.80;;;;;;5033928;28;19928;-76
2022/07/17 13:47:29;;;;;;;;;;;27.20;87.20;;;;;;5032053;28;19917;-75
2022/07/17 13:49:55;;;;;;;;;;;27.10;88.20;;;;;;5033873;28;19916;-78
2022/07/17 13:52:21;;;;;;;;;;;27.00;89.50;;;;;;5034816;28;19921;-79
2022/07/17 13:54:47;;;;;;;;;;;27.10;89.70;;;;;;5033629;28;19964;-79
2022/07/17 13:57:12;;;;;;;;;;;27.20;91.10;;;;;;5038328;28;19948;-77
2022/07/17 13:59:38;;;;;;;;;;;27.10;89.50;;;;;;5035915;28;19920;-78
2022/07/17 14:02:04;;;;;;;;;;;27.10;90.50;;;;;;5039350;28;19925;-81
2022/07/17 14:04:29;;;;;;;;;;;27.20;88.30;;;;;;5034560;28;20321;-75
2022/07/17 14:06:55;;;;;;;;;;;27.20;89.50;;;;;;5037318;28;20276;-76
2022/07/17 14:09:20;;;;;;;;;;;27.00;89.90;;;;;;5037816;28;20362;-76
2022/07/17 14:11:46;;;;;;;;;;;27.40;90.10;;;;;;5036794;28;19917;-81